sensor_id;sensor_type;location;lat;lon;timestamp;P1;durP1;ratioP1;P2;durP2;ratioP2
42332;SDS011;27984;51.476;5.702;2023-09-18T00:00:25;30.75;;;24.00;;
42332;SDS011;27984;51.476;5.702;2023-09-18T00:02:51;34.28;;;23.40;;
42332;SDS011;27984;51.476;5.702;2023-09-18T00:05:17;30.45;;;24.45;;
42332;SDS011;27984;51.476;5.702;2023-09-18T00:07:43;33.03;;;23.35;;
42332;SDS011;27984;51.476;5.702;2023-09-18T00:10:09;31.40;;;23.23;;
42332;SDS011;27984;51.476;5.702;2023-09-18T00:12:35;27.38;;;23.33;;
42332;SDS011;27984;51.476;5.702;2023-09-18T00:15:01;28.63;;;23.65;;
42332;SDS011;27984;51.476;5.702;2023-09-18T00:17:28;28.00;;;22.55;;
42332;SDS011;27984;51.476;5.702;2023-09-18T00:19:54;27.58;;;20.92;;
42332;SDS011;27984;51.476;5.702;2023-09-18T00:22:20;28.05;;;21.67;;
42332;SDS011;27984;51.476;5.702;2023-09-18T00:24:47;27.52;;;20.13;;
42332;SDS011;27984;51.476;5.702;2023-09-18T00:27:13;30.45;;;20.10;;
42332;SDS011;27984;51.476;5.702;2023-09-18T00:29:40;27.33;;;20.20;;
42332;SDS011;27984;51.476;5.702;2023-09-18T00:32:06;24.63;;;19.30;;
42332;SDS011;27984;51.476;5.702;2023-09-18T00:34:33;24.77;;;18.60;;
42332;SDS011;27984;51.476;5.702;2023-09-18T00:36:59;24.65;;;17.90;;
42332;SDS011;27984;51.476;5.702;2023-09-18T00:39:25;24.23;;;18.63;;
42332;SDS011;27984;51.476;5.702;2023-09-18T00:41:51;24.08;;;17.67;;
42332;SDS011;27984;51.476;5.702;2023-09-18T00:44:22;22.10;;;16.33;;
42332;SDS011;27984;51.476;5.702;2023-09-18T00:46:48;21.10;;;15.73;;
42332;SDS011;27984;51.476;5.702;2023-09-18T00:49:15;19.95;;;15.20;;
42332;SDS011;27984;51.476;5.702;2023-09-18T00:51:41;22.13;;;16.48;;
42332;SDS011;27984;51.476;5.702;2023-09-18T00:54:08;22.25;;;14.95;;
42332;SDS011;27984;51.476;5.702;2023-09-18T00:56:35;20.48;;;14.48;;
42332;SDS011;27984;51.476;5.702;2023-09-18T01:01:47;18.77;;;14.35;;
42332;SDS011;27984;51.476;5.702;2023-09-18T01:04:15;17.45;;;14.13;;
42332;SDS011;27984;51.476;5.702;2023-09-18T01:06:41;19.48;;;12.90;;
42332;SDS011;27984;51.476;5.702;2023-09-18T01:09:07;15.10;;;12.20;;
42332;SDS011;27984;51.476;5.702;2023-09-18T01:14:14;18.35;;;11.02;;
42332;SDS011;27984;51.476;5.702;2023-09-18T01:16:58;14.23;;;11.35;;
42332;SDS011;27984;51.476;5.702;2023-09-18T01:19:42;18.63;;;12.07;;
42332;SDS011;27984;51.476;5.702;2023-09-18T01:22:16;13.98;;;10.90;;
42332;SDS011;27984;51.476;5.702;2023-09-18T01:24:43;18.85;;;11.02;;
42332;SDS011;27984;51.476;5.702;2023-09-18T01:27:11;20.15;;;11.27;;
42332;SDS011;27984;51.476;5.702;2023-09-18T01:29:42;16.92;;;10.48;;
42332;SDS011;27984;51.476;5.702;2023-09-18T01:32:08;15.38;;;10.23;;
42332;SDS011;27984;51.476;5.702;2023-09-18T01:34:35;13.35;;;10.05;;
42332;SDS011;27984;51.476;5.702;2023-09-18T01:37:03;16.05;;;10.23;;
42332;SDS011;27984;51.476;5.702;2023-09-18T01:39:30;15.48;;;10.73;;
42332;SDS011;27984;51.476;5.702;2023-09-18T01:42:03;14.15;;;9.30;;
42332;SDS011;27984;51.476;5.702;2023-09-18T01:44:30;15.60;;;9.75;;
42332;SDS011;27984;51.476;5.702;2023-09-18T01:46:58;16.48;;;9.20;;
42332;SDS011;27984;51.476;5.702;2023-09-18T01:49:28;15.23;;;9.27;;
42332;SDS011;27984;51.476;5.702;2023-09-18T01:51:54;11.82;;;8.32;;
42332;SDS011;27984;51.476;5.702;2023-09-18T01:54:20;17.55;;;8.93;;
42332;SDS011;27984;51.476;5.702;2023-09-18T01:56:46;14.77;;;9.25;;
42332;SDS011;27984;51.476;5.702;2023-09-18T01:59:12;14.35;;;8.88;;
42332;SDS011;27984;51.476;5.702;2023-09-18T02:01:38;14.25;;;8.07;;
42332;SDS011;27984;51.476;5.702;2023-09-18T02:04:04;16.40;;;8.55;;
42332;SDS011;27984;51.476;5.702;2023-09-18T02:06:30;10.68;;;7.57;;
42332;SDS011;27984;51.476;5.702;2023-09-18T02:08:56;16.73;;;7.95;;
42332;SDS011;27984;51.476;5.702;2023-09-18T02:11:22;15.23;;;8.15;;
42332;SDS011;27984;51.476;5.702;2023-09-18T02:13:49;12.02;;;7.63;;
42332;SDS011;27984;51.476;5.702;2023-09-18T02:16:15;13.15;;;7.63;;
42332;SDS011;27984;51.476;5.702;2023-09-18T02:18:41;12.15;;;7.53;;
42332;SDS011;27984;51.476;5.702;2023-09-18T02:21:08;16.48;;;7.95;;
42332;SDS011;27984;51.476;5.702;2023-09-18T02:23:34;16.63;;;7.82;;
42332;SDS011;27984;51.476;5.702;2023-09-18T02:26:00;12.55;;;7.93;;
42332;SDS011;27984;51.476;5.702;2023-09-18T02:28:26;12.60;;;7.90;;
42332;SDS011;27984;51.476;5.702;2023-09-18T02:30:52;20.55;;;8.10;;
42332;SDS011;27984;51.476;5.702;2023-09-18T02:33:18;12.18;;;7.63;;
42332;SDS011;27984;51.476;5.702;2023-09-18T02:35:44;13.52;;;7.90;;
42332;SDS011;27984;51.476;5.702;2023-09-18T02:38:10;14.35;;;7.90;;
42332;SDS011;27984;51.476;5.702;2023-09-18T02:40:36;16.00;;;7.60;;
42332;SDS011;27984;51.476;5.702;2023-09-18T02:43:02;12.35;;;7.63;;
42332;SDS011;27984;51.476;5.702;2023-09-18T02:45:28;13.93;;;7.57;;
42332;SDS011;27984;51.476;5.702;2023-09-18T02:47:54;15.70;;;7.47;;
42332;SDS011;27984;51.476;5.702;2023-09-18T02:50:19;14.45;;;7.97;;
42332;SDS011;27984;51.476;5.702;2023-09-18T02:52:45;19.02;;;8.25;;
42332;SDS011;27984;51.476;5.702;2023-09-18T02:55:11;11.43;;;8.23;;
42332;SDS011;27984;51.476;5.702;2023-09-18T02:57:38;16.10;;;8.65;;
42332;SDS011;27984;51.476;5.702;2023-09-18T03:00:04;15.77;;;8.25;;
42332;SDS011;27984;51.476;5.702;2023-09-18T03:02:30;17.85;;;8.77;;
42332;SDS011;27984;51.476;5.702;2023-09-18T03:04:56;14.23;;;8.80;;
42332;SDS011;27984;51.476;5.702;2023-09-18T03:07:22;16.48;;;8.65;;
42332;SDS011;27984;51.476;5.702;2023-09-18T03:09:48;12.95;;;8.07;;
42332;SDS011;27984;51.476;5.702;2023-09-18T03:12:14;12.63;;;7.60;;
42332;SDS011;27984;51.476;5.702;2023-09-18T03:14:40;16.27;;;8.88;;
42332;SDS011;27984;51.476;5.702;2023-09-18T03:17:06;23.35;;;8.05;;
42332;SDS011;27984;51.476;5.702;2023-09-18T03:19:32;17.42;;;8.20;;
42332;SDS011;27984;51.476;5.702;2023-09-18T03:21:58;18.70;;;8.35;;
42332;SDS011;27984;51.476;5.702;2023-09-18T03:24:24;15.00;;;8.02;;
42332;SDS011;27984;51.476;5.702;2023-09-18T03:26:50;13.95;;;8.20;;
42332;SDS011;27984;51.476;5.702;2023-09-18T03:29:16;17.15;;;8.48;;
42332;SDS011;27984;51.476;5.702;2023-09-18T03:31:42;13.20;;;8.25;;
42332;SDS011;27984;51.476;5.702;2023-09-18T03:34:08;15.77;;;7.88;;
42332;SDS011;27984;51.476;5.702;2023-09-18T03:36:34;17.83;;;7.50;;
42332;SDS011;27984;51.476;5.702;2023-09-18T03:39:02;15.70;;;7.03;;
42332;SDS011;27984;51.476;5.702;2023-09-18T03:41:29;15.45;;;6.85;;
42332;SDS011;27984;51.476;5.702;2023-09-18T03:43:59;15.15;;;6.63;;
42332;SDS011;27984;51.476;5.702;2023-09-18T03:46:25;20.17;;;6.88;;
42332;SDS011;27984;51.476;5.702;2023-09-18T03:48:51;16.42;;;6.57;;
42332;SDS011;27984;51.476;5.702;2023-09-18T03:51:17;16.38;;;6.20;;
42332;SDS011;27984;51.476;5.702;2023-09-18T03:53:44;15.00;;;6.40;;
42332;SDS011;27984;51.476;5.702;2023-09-18T03:56:11;14.02;;;6.55;;
42332;SDS011;27984;51.476;5.702;2023-09-18T03:58:37;17.70;;;6.50;;
42332;SDS011;27984;51.476;5.702;2023-09-18T04:01:03;13.38;;;5.60;;
42332;SDS011;27984;51.476;5.702;2023-09-18T04:03:29;11.65;;;6.22;;
42332;SDS011;27984;51.476;5.702;2023-09-18T04:05:55;11.52;;;6.07;;
42332;SDS011;27984;51.476;5.702;2023-09-18T04:08:21;11.32;;;6.18;;
42332;SDS011;27984;51.476;5.702;2023-09-18T04:10:47;14.52;;;6.28;;
42332;SDS011;27984;51.476;5.702;2023-09-18T04:13:13;19.70;;;6.07;;
42332;SDS011;27984;51.476;5.702;2023-09-18T04:15:39;10.93;;;5.90;;
42332;SDS011;27984;51.476;5.702;2023-09-18T04:18:05;11.00;;;5.85;;
42332;SDS011;27984;51.476;5.702;2023-09-18T04:20:31;11.85;;;5.95;;
42332;SDS011;27984;51.476;5.702;2023-09-18T04:25:42;9.20;;;6.03;;
42332;SDS011;27984;51.476;5.702;2023-09-18T04:28:08;12.25;;;5.47;;
42332;SDS011;27984;51.476;5.702;2023-09-18T04:30:33;15.25;;;6.47;;
42332;SDS011;27984;51.476;5.702;2023-09-18T04:32:59;10.95;;;5.53;;
42332;SDS011;27984;51.476;5.702;2023-09-18T04:35:26;10.00;;;5.85;;
42332;SDS011;27984;51.476;5.702;2023-09-18T04:37:55;17.35;;;5.82;;
42332;SDS011;27984;51.476;5.702;2023-09-18T04:40:21;13.75;;;6.07;;
42332;SDS011;27984;51.476;5.702;2023-09-18T04:42:49;8.93;;;5.60;;
42332;SDS011;27984;51.476;5.702;2023-09-18T04:45:15;10.75;;;5.72;;
42332;SDS011;27984;51.476;5.702;2023-09-18T04:47:43;10.15;;;5.55;;
42332;SDS011;27984;51.476;5.702;2023-09-18T04:50:09;9.15;;;4.82;;
42332;SDS011;27984;51.476;5.702;2023-09-18T04:52:35;11.50;;;4.53;;
42332;SDS011;27984;51.476;5.702;2023-09-18T04:55:02;8.93;;;4.90;;
42332;SDS011;27984;51.476;5.702;2023-09-18T04:57:30;8.18;;;4.10;;
42332;SDS011;27984;51.476;5.702;2023-09-18T04:59:56;8.75;;;4.25;;
42332;SDS011;27984;51.476;5.702;2023-09-18T05:02:22;6.30;;;4.28;;
42332;SDS011;27984;51.476;5.702;2023-09-18T05:04:50;6.22;;;3.65;;
42332;SDS011;27984;51.476;5.702;2023-09-18T05:07:16;11.30;;;4.00;;
42332;SDS011;27984;51.476;5.702;2023-09-18T05:09:42;8.55;;;3.80;;
42332;SDS011;27984;51.476;5.702;2023-09-18T05:12:08;8.93;;;3.83;;
42332;SDS011;27984;51.476;5.702;2023-09-18T05:14:39;10.05;;;4.20;;
42332;SDS011;27984;51.476;5.702;2023-09-18T05:17:05;10.13;;;3.75;;
42332;SDS011;27984;51.476;5.702;2023-09-18T05:19:31;7.32;;;3.60;;
42332;SDS011;27984;51.476;5.702;2023-09-18T05:22:00;7.13;;;3.28;;
42332;SDS011;27984;51.476;5.702;2023-09-18T05:24:26;7.80;;;3.20;;
42332;SDS011;27984;51.476;5.702;2023-09-18T05:26:52;8.30;;;3.70;;
42332;SDS011;27984;51.476;5.702;2023-09-18T05:29:19;11.38;;;3.70;;
42332;SDS011;27984;51.476;5.702;2023-09-18T05:31:45;6.55;;;3.60;;
42332;SDS011;27984;51.476;5.702;2023-09-18T05:34:12;8.90;;;3.60;;
42332;SDS011;27984;51.476;5.702;2023-09-18T05:36:38;9.18;;;3.20;;
42332;SDS011;27984;51.476;5.702;2023-09-18T05:39:04;5.43;;;3.33;;
42332;SDS011;27984;51.476;5.702;2023-09-18T05:41:30;7.88;;;3.28;;
42332;SDS011;27984;51.476;5.702;2023-09-18T05:43:56;10.10;;;3.65;;
42332;SDS011;27984;51.476;5.702;2023-09-18T05:46:22;9.35;;;3.13;;
42332;SDS011;27984;51.476;5.702;2023-09-18T05:48:48;9.38;;;2.85;;
42332;SDS011;27984;51.476;5.702;2023-09-18T05:51:14;4.85;;;2.67;;
42332;SDS011;27984;51.476;5.702;2023-09-18T05:53:40;8.35;;;2.95;;
42332;SDS011;27984;51.476;5.702;2023-09-18T05:56:06;4.82;;;2.55;;
42332;SDS011;27984;51.476;5.702;2023-09-18T05:58:34;6.60;;;2.72;;
42332;SDS011;27984;51.476;5.702;2023-09-18T06:01:01;4.70;;;2.40;;
42332;SDS011;27984;51.476;5.702;2023-09-18T06:03:27;5.50;;;2.38;;
42332;SDS011;27984;51.476;5.702;2023-09-18T06:05:55;5.93;;;2.20;;
42332;SDS011;27984;51.476;5.702;2023-09-18T06:08:21;4.05;;;2.42;;
42332;SDS011;27984;51.476;5.702;2023-09-18T06:10:48;5.20;;;2.33;;
42332;SDS011;27984;51.476;5.702;2023-09-18T06:13:14;5.90;;;2.25;;
42332;SDS011;27984;51.476;5.702;2023-09-18T06:15:40;5.43;;;2.20;;
42332;SDS011;27984;51.476;5.702;2023-09-18T06:18:06;5.28;;;2.13;;
42332;SDS011;27984;51.476;5.702;2023-09-18T06:20:32;4.60;;;1.85;;
42332;SDS011;27984;51.476;5.702;2023-09-18T06:22:58;7.72;;;2.05;;
42332;SDS011;27984;51.476;5.702;2023-09-18T06:25:24;7.18;;;2.22;;
42332;SDS011;27984;51.476;5.702;2023-09-18T06:27:50;4.15;;;2.10;;
42332;SDS011;27984;51.476;5.702;2023-09-18T06:30:17;4.68;;;2.03;;
42332;SDS011;27984;51.476;5.702;2023-09-18T06:32:43;8.68;;;2.10;;
42332;SDS011;27984;51.476;5.702;2023-09-18T06:35:09;3.35;;;1.85;;
42332;SDS011;27984;51.476;5.702;2023-09-18T06:37:35;3.95;;;2.10;;
42332;SDS011;27984;51.476;5.702;2023-09-18T06:40:01;5.13;;;2.22;;
42332;SDS011;27984;51.476;5.702;2023-09-18T06:42:28;5.28;;;2.17;;
42332;SDS011;27984;51.476;5.702;2023-09-18T06:44:54;5.75;;;2.00;;
42332;SDS011;27984;51.476;5.702;2023-09-18T06:47:21;3.53;;;1.90;;
42332;SDS011;27984;51.476;5.702;2023-09-18T06:49:49;4.40;;;1.88;;
42332;SDS011;27984;51.476;5.702;2023-09-18T06:52:15;4.35;;;2.08;;
42332;SDS011;27984;51.476;5.702;2023-09-18T06:54:41;3.88;;;1.60;;
42332;SDS011;27984;51.476;5.702;2023-09-18T06:57:08;4.93;;;2.00;;
42332;SDS011;27984;51.476;5.702;2023-09-18T06:59:35;5.55;;;2.10;;
42332;SDS011;27984;51.476;5.702;2023-09-18T07:02:01;6.18;;;1.90;;
42332;SDS011;27984;51.476;5.702;2023-09-18T07:04:27;4.68;;;1.77;;
42332;SDS011;27984;51.476;5.702;2023-09-18T07:06:53;4.55;;;1.65;;
42332;SDS011;27984;51.476;5.702;2023-09-18T07:09:21;7.05;;;2.03;;
42332;SDS011;27984;51.476;5.702;2023-09-18T07:11:48;3.90;;;1.60;;
42332;SDS011;27984;51.476;5.702;2023-09-18T07:14:14;4.57;;;2.00;;
42332;SDS011;27984;51.476;5.702;2023-09-18T07:16:40;3.33;;;1.70;;
42332;SDS011;27984;51.476;5.702;2023-09-18T07:19:06;3.97;;;2.10;;
42332;SDS011;27984;51.476;5.702;2023-09-18T07:21:36;7.90;;;2.50;;
42332;SDS011;27984;51.476;5.702;2023-09-18T07:24:02;4.95;;;1.92;;
42332;SDS011;27984;51.476;5.702;2023-09-18T07:26:29;4.82;;;1.83;;
42332;SDS011;27984;51.476;5.702;2023-09-18T07:28:55;4.47;;;1.90;;
42332;SDS011;27984;51.476;5.702;2023-09-18T07:31:21;5.20;;;2.05;;
42332;SDS011;27984;51.476;5.702;2023-09-18T07:33:47;5.00;;;2.08;;
42332;SDS011;27984;51.476;5.702;2023-09-18T07:36:13;4.22;;;2.05;;
42332;SDS011;27984;51.476;5.702;2023-09-18T07:38:40;2.67;;;1.80;;
42332;SDS011;27984;51.476;5.702;2023-09-18T07:41:08;5.82;;;2.03;;
42332;SDS011;27984;51.476;5.702;2023-09-18T07:43:34;4.35;;;1.83;;
42332;SDS011;27984;51.476;5.702;2023-09-18T07:45:59;4.05;;;1.88;;
42332;SDS011;27984;51.476;5.702;2023-09-18T07:48:27;4.40;;;1.75;;
42332;SDS011;27984;51.476;5.702;2023-09-18T07:50:52;4.10;;;1.73;;
42332;SDS011;27984;51.476;5.702;2023-09-18T07:53:20;4.50;;;1.80;;
42332;SDS011;27984;51.476;5.702;2023-09-18T07:55:47;4.63;;;2.25;;
42332;SDS011;27984;51.476;5.702;2023-09-18T07:58:14;2.80;;;1.58;;
42332;SDS011;27984;51.476;5.702;2023-09-18T08:00:40;7.07;;;2.10;;
42332;SDS011;27984;51.476;5.702;2023-09-18T08:03:06;8.00;;;2.08;;
42332;SDS011;27984;51.476;5.702;2023-09-18T08:05:32;4.43;;;1.90;;
42332;SDS011;27984;51.476;5.702;2023-09-18T08:07:58;2.75;;;1.73;;
42332;SDS011;27984;51.476;5.702;2023-09-18T08:10:30;4.03;;;1.77;;
42332;SDS011;27984;51.476;5.702;2023-09-18T08:12:56;4.18;;;1.75;;
42332;SDS011;27984;51.476;5.702;2023-09-18T08:15:22;7.28;;;1.75;;
42332;SDS011;27984;51.476;5.702;2023-09-18T08:17:48;7.68;;;1.98;;
42332;SDS011;27984;51.476;5.702;2023-09-18T08:20:14;7.50;;;1.90;;
42332;SDS011;27984;51.476;5.702;2023-09-18T08:22:41;4.72;;;1.80;;
42332;SDS011;27984;51.476;5.702;2023-09-18T08:25:07;5.25;;;2.00;;
42332;SDS011;27984;51.476;5.702;2023-09-18T08:27:36;5.28;;;1.65;;
42332;SDS011;27984;51.476;5.702;2023-09-18T08:30:05;5.18;;;1.80;;
42332;SDS011;27984;51.476;5.702;2023-09-18T08:32:31;4.53;;;1.58;;
42332;SDS011;27984;51.476;5.702;2023-09-18T08:34:59;2.55;;;1.40;;
42332;SDS011;27984;51.476;5.702;2023-09-18T08:37:27;3.88;;;1.50;;
42332;SDS011;27984;51.476;5.702;2023-09-18T08:39:53;5.63;;;1.58;;
42332;SDS011;27984;51.476;5.702;2023-09-18T08:42:19;4.60;;;1.50;;
42332;SDS011;27984;51.476;5.702;2023-09-18T08:44:46;3.08;;;1.55;;
42332;SDS011;27984;51.476;5.702;2023-09-18T08:47:14;6.95;;;1.70;;
42332;SDS011;27984;51.476;5.702;2023-09-18T08:49:41;8.32;;;2.15;;
42332;SDS011;27984;51.476;5.702;2023-09-18T08:52:07;5.03;;;1.50;;
42332;SDS011;27984;51.476;5.702;2023-09-18T08:54:34;3.92;;;1.70;;
42332;SDS011;27984;51.476;5.702;2023-09-18T08:57:00;5.07;;;1.70;;
42332;SDS011;27984;51.476;5.702;2023-09-18T08:59:26;3.72;;;1.52;;
42332;SDS011;27984;51.476;5.702;2023-09-18T09:01:52;5.45;;;1.80;;
42332;SDS011;27984;51.476;5.702;2023-09-18T09:04:18;4.72;;;1.90;;
42332;SDS011;27984;51.476;5.702;2023-09-18T09:06:45;4.35;;;1.50;;
42332;SDS011;27984;51.476;5.702;2023-09-18T09:09:12;6.72;;;1.50;;
42332;SDS011;27984;51.476;5.702;2023-09-18T09:11:39;4.43;;;1.50;;
42332;SDS011;27984;51.476;5.702;2023-09-18T09:14:09;2.40;;;1.38;;
42332;SDS011;27984;51.476;5.702;2023-09-18T09:16:48;5.93;;;1.30;;
42332;SDS011;27984;51.476;5.702;2023-09-18T09:19:15;7.78;;;1.65;;
42332;SDS011;27984;51.476;5.702;2023-09-18T09:21:42;4.78;;;1.85;;
42332;SDS011;27984;51.476;5.702;2023-09-18T09:24:09;5.40;;;1.73;;
42332;SDS011;27984;51.476;5.702;2023-09-18T09:26:39;5.00;;;1.40;;
42332;SDS011;27984;51.476;5.702;2023-09-18T09:29:15;7.25;;;1.67;;
42332;SDS011;27984;51.476;5.702;2023-09-18T09:31:43;6.00;;;1.63;;
42332;SDS011;27984;51.476;5.702;2023-09-18T09:34:09;6.40;;;1.50;;
42332;SDS011;27984;51.476;5.702;2023-09-18T09:36:35;6.65;;;1.60;;
42332;SDS011;27984;51.476;5.702;2023-09-18T09:39:01;3.33;;;1.45;;
42332;SDS011;27984;51.476;5.702;2023-09-18T09:41:30;3.92;;;1.60;;
42332;SDS011;27984;51.476;5.702;2023-09-18T09:43:57;5.20;;;1.60;;
42332;SDS011;27984;51.476;5.702;2023-09-18T09:46:23;4.85;;;1.48;;
42332;SDS011;27984;51.476;5.702;2023-09-18T09:49:03;4.57;;;1.63;;
42332;SDS011;27984;51.476;5.702;2023-09-18T09:51:30;5.20;;;1.52;;
42332;SDS011;27984;51.476;5.702;2023-09-18T09:53:56;4.75;;;1.70;;
42332;SDS011;27984;51.476;5.702;2023-09-18T09:59:10;4.95;;;1.50;;
42332;SDS011;27984;51.476;5.702;2023-09-18T10:01:39;7.90;;;1.80;;
42332;SDS011;27984;51.476;5.702;2023-09-18T10:04:10;3.88;;;1.70;;
42332;SDS011;27984;51.476;5.702;2023-09-18T10:06:37;2.85;;;1.55;;
42332;SDS011;27984;51.476;5.702;2023-09-18T10:09:04;5.60;;;1.73;;
42332;SDS011;27984;51.476;5.702;2023-09-18T10:11:32;4.68;;;1.80;;
42332;SDS011;27984;51.476;5.702;2023-09-18T10:14:04;4.65;;;1.80;;
42332;SDS011;27984;51.476;5.702;2023-09-18T10:16:35;4.43;;;1.80;;
42332;SDS011;27984;51.476;5.702;2023-09-18T10:26:48;5.60;;;1.80;;
42332;SDS011;27984;51.476;5.702;2023-09-18T10:29:14;3.22;;;2.00;;
42332;SDS011;27984;51.476;5.702;2023-09-18T10:31:43;4.32;;;2.10;;
42332;SDS011;27984;51.476;5.702;2023-09-18T10:34:09;5.28;;;1.83;;
42332;SDS011;27984;51.476;5.702;2023-09-18T10:36:36;6.47;;;2.20;;
42332;SDS011;27984;51.476;5.702;2023-09-18T10:39:03;6.57;;;1.80;;
42332;SDS011;27984;51.476;5.702;2023-09-18T10:41:33;4.82;;;1.90;;
42332;SDS011;27984;51.476;5.702;2023-09-18T10:43:59;3.60;;;1.80;;
42332;SDS011;27984;51.476;5.702;2023-09-18T10:46:26;3.53;;;1.88;;
42332;SDS011;27984;51.476;5.702;2023-09-18T10:48:52;4.82;;;1.80;;
42332;SDS011;27984;51.476;5.702;2023-09-18T10:51:20;5.15;;;1.75;;
42332;SDS011;27984;51.476;5.702;2023-09-18T10:53:47;3.05;;;1.83;;
42332;SDS011;27984;51.476;5.702;2023-09-18T10:56:17;3.97;;;1.90;;
42332;SDS011;27984;51.476;5.702;2023-09-18T10:58:43;6.78;;;1.83;;
42332;SDS011;27984;51.476;5.702;2023-09-18T11:01:11;6.03;;;1.92;;
42332;SDS011;27984;51.476;5.702;2023-09-18T11:03:37;4.90;;;2.08;;
42332;SDS011;27984;51.476;5.702;2023-09-18T11:11:01;9.52;;;2.03;;
42332;SDS011;27984;51.476;5.702;2023-09-18T11:13:40;6.78;;;1.90;;
42332;SDS011;27984;51.476;5.702;2023-09-18T11:16:14;4.60;;;1.50;;
42332;SDS011;27984;51.476;5.702;2023-09-18T11:18:40;5.00;;;1.80;;
42332;SDS011;27984;51.476;5.702;2023-09-18T11:21:10;5.28;;;1.70;;
42332;SDS011;27984;51.476;5.702;2023-09-18T11:23:37;4.40;;;1.95;;
42332;SDS011;27984;51.476;5.702;2023-09-18T11:26:07;5.18;;;1.98;;
42332;SDS011;27984;51.476;5.702;2023-09-18T11:28:34;6.10;;;1.55;;
42332;SDS011;27984;51.476;5.702;2023-09-18T11:31:00;7.88;;;2.10;;
42332;SDS011;27984;51.476;5.702;2023-09-18T11:35:56;4.20;;;2.00;;
42332;SDS011;27984;51.476;5.702;2023-09-18T11:38:22;6.85;;;2.25;;
42332;SDS011;27984;51.476;5.702;2023-09-18T11:40:48;5.93;;;2.00;;
42332;SDS011;27984;51.476;5.702;2023-09-18T11:43:27;7.28;;;2.10;;
42332;SDS011;27984;51.476;5.702;2023-09-18T11:46:00;5.88;;;2.08;;
42332;SDS011;27984;51.476;5.702;2023-09-18T11:48:29;3.90;;;2.03;;
42332;SDS011;27984;51.476;5.702;2023-09-18T11:50:59;5.22;;;2.30;;
42332;SDS011;27984;51.476;5.702;2023-09-18T11:53:28;7.00;;;2.00;;
42332;SDS011;27984;51.476;5.702;2023-09-18T11:55:54;5.18;;;2.28;;
42332;SDS011;27984;51.476;5.702;2023-09-18T11:58:20;7.10;;;2.30;;
42332;SDS011;27984;51.476;5.702;2023-09-18T12:00:48;7.00;;;2.35;;
42332;SDS011;27984;51.476;5.702;2023-09-18T12:03:18;6.07;;;2.00;;
42332;SDS011;27984;51.476;5.702;2023-09-18T12:05:51;5.70;;;2.15;;
42332;SDS011;27984;51.476;5.702;2023-09-18T12:08:18;4.60;;;2.10;;
42332;SDS011;27984;51.476;5.702;2023-09-18T12:10:44;2.58;;;1.75;;
42332;SDS011;27984;51.476;5.702;2023-09-18T12:13:10;6.75;;;2.03;;
42332;SDS011;27984;51.476;5.702;2023-09-18T12:15:36;3.92;;;1.90;;
42332;SDS011;27984;51.476;5.702;2023-09-18T12:18:05;7.90;;;1.90;;
42332;SDS011;27984;51.476;5.702;2023-09-18T12:20:31;4.07;;;2.00;;
42332;SDS011;27984;51.476;5.702;2023-09-18T12:22:59;5.55;;;1.70;;
42332;SDS011;27984;51.476;5.702;2023-09-18T12:25:25;4.03;;;1.75;;
42332;SDS011;27984;51.476;5.702;2023-09-18T12:27:54;3.58;;;1.83;;
42332;SDS011;27984;51.476;5.702;2023-09-18T12:30:21;4.05;;;1.77;;
42332;SDS011;27984;51.476;5.702;2023-09-18T12:32:47;2.60;;;1.52;;
42332;SDS011;27984;51.476;5.702;2023-09-18T12:35:14;3.20;;;1.50;;
42332;SDS011;27984;51.476;5.702;2023-09-18T12:37:40;3.80;;;1.80;;
42332;SDS011;27984;51.476;5.702;2023-09-18T12:40:07;3.08;;;1.45;;
42332;SDS011;27984;51.476;5.702;2023-09-18T12:42:39;6.00;;;1.52;;
42332;SDS011;27984;51.476;5.702;2023-09-18T12:45:06;3.25;;;1.70;;
42332;SDS011;27984;51.476;5.702;2023-09-18T12:47:33;4.18;;;1.60;;
42332;SDS011;27984;51.476;5.702;2023-09-18T12:50:02;7.53;;;1.52;;
42332;SDS011;27984;51.476;5.702;2023-09-18T12:52:28;5.00;;;1.92;;
42332;SDS011;27984;51.476;5.702;2023-09-18T12:54:55;3.33;;;1.33;;
42332;SDS011;27984;51.476;5.702;2023-09-18T12:57:23;5.50;;;1.73;;
42332;SDS011;27984;51.476;5.702;2023-09-18T12:59:49;4.85;;;1.90;;
42332;SDS011;27984;51.476;5.702;2023-09-18T13:02:17;5.65;;;1.92;;
42332;SDS011;27984;51.476;5.702;2023-09-18T13:04:56;5.45;;;1.73;;
42332;SDS011;27984;51.476;5.702;2023-09-18T13:07:24;5.63;;;1.80;;
42332;SDS011;27984;51.476;5.702;2023-09-18T13:09:59;3.45;;;1.73;;
42332;SDS011;27984;51.476;5.702;2023-09-18T13:12:25;3.88;;;2.10;;
42332;SDS011;27984;51.476;5.702;2023-09-18T13:15:01;3.10;;;2.00;;
42332;SDS011;27984;51.476;5.702;2023-09-18T13:17:36;2.50;;;1.83;;
42332;SDS011;27984;51.476;5.702;2023-09-18T13:20:06;2.70;;;1.80;;
42332;SDS011;27984;51.476;5.702;2023-09-18T13:22:32;4.18;;;1.58;;
42332;SDS011;27984;51.476;5.702;2023-09-18T13:24:58;5.07;;;1.55;;
42332;SDS011;27984;51.476;5.702;2023-09-18T13:27:24;4.38;;;1.30;;
42332;SDS011;27984;51.476;5.702;2023-09-18T13:29:51;3.58;;;1.40;;
42332;SDS011;27984;51.476;5.702;2023-09-18T13:32:18;1.83;;;1.20;;
42332;SDS011;27984;51.476;5.702;2023-09-18T13:34:44;4.75;;;1.70;;
42332;SDS011;27984;51.476;5.702;2023-09-18T13:37:10;3.10;;;1.50;;
42332;SDS011;27984;51.476;5.702;2023-09-18T13:39:36;28.58;;;21.83;;
42332;SDS011;27984;51.476;5.702;2023-09-18T13:42:02;3.08;;;1.80;;
42332;SDS011;27984;51.476;5.702;2023-09-18T13:44:28;5.63;;;1.58;;
42332;SDS011;27984;51.476;5.702;2023-09-18T13:46:54;4.35;;;1.75;;
42332;SDS011;27984;51.476;5.702;2023-09-18T13:49:20;2.97;;;1.77;;
42332;SDS011;27984;51.476;5.702;2023-09-18T13:51:47;4.28;;;2.22;;
42332;SDS011;27984;51.476;5.702;2023-09-18T13:54:15;5.43;;;1.55;;
42332;SDS011;27984;51.476;5.702;2023-09-18T13:56:41;2.70;;;1.35;;
42332;SDS011;27984;51.476;5.702;2023-09-18T13:59:08;4.07;;;1.77;;
42332;SDS011;27984;51.476;5.702;2023-09-18T14:01:35;4.32;;;1.50;;
42332;SDS011;27984;51.476;5.702;2023-09-18T14:04:01;4.18;;;1.67;;
42332;SDS011;27984;51.476;5.702;2023-09-18T14:06:27;4.60;;;1.50;;
42332;SDS011;27984;51.476;5.702;2023-09-18T14:08:53;3.63;;;1.58;;
42332;SDS011;27984;51.476;5.702;2023-09-18T14:11:19;2.55;;;1.50;;
42332;SDS011;27984;51.476;5.702;2023-09-18T14:16:51;2.88;;;1.60;;
42332;SDS011;27984;51.476;5.702;2023-09-18T14:19:17;4.05;;;1.73;;
42332;SDS011;27984;51.476;5.702;2023-09-18T14:21:43;2.65;;;1.42;;
42332;SDS011;27984;51.476;5.702;2023-09-18T14:24:09;2.63;;;1.60;;
42332;SDS011;27984;51.476;5.702;2023-09-18T14:26:36;3.30;;;1.23;;
42332;SDS011;27984;51.476;5.702;2023-09-18T14:29:09;2.45;;;1.60;;
42332;SDS011;27984;51.476;5.702;2023-09-18T14:31:38;5.47;;;1.88;;
42332;SDS011;27984;51.476;5.702;2023-09-18T14:34:04;4.15;;;1.30;;
42332;SDS011;27984;51.476;5.702;2023-09-18T14:36:33;4.47;;;1.50;;
42332;SDS011;27984;51.476;5.702;2023-09-18T14:39:00;3.78;;;1.50;;
42332;SDS011;27984;51.476;5.702;2023-09-18T14:41:26;3.90;;;1.33;;
42332;SDS011;27984;51.476;5.702;2023-09-18T14:43:52;3.55;;;1.35;;
42332;SDS011;27984;51.476;5.702;2023-09-18T14:46:18;3.72;;;1.40;;
42332;SDS011;27984;51.476;5.702;2023-09-18T14:48:46;2.65;;;1.45;;
42332;SDS011;27984;51.476;5.702;2023-09-18T14:51:12;2.65;;;1.20;;
42332;SDS011;27984;51.476;5.702;2023-09-18T14:53:38;4.20;;;1.42;;
42332;SDS011;27984;51.476;5.702;2023-09-18T14:56:03;3.63;;;1.70;;
42332;SDS011;27984;51.476;5.702;2023-09-18T14:58:30;3.75;;;1.77;;
42332;SDS011;27984;51.476;5.702;2023-09-18T15:00:56;2.88;;;1.50;;
42332;SDS011;27984;51.476;5.702;2023-09-18T15:03:23;4.95;;;1.88;;
42332;SDS011;27984;51.476;5.702;2023-09-18T15:05:49;4.88;;;1.45;;
42332;SDS011;27984;51.476;5.702;2023-09-18T15:08:17;3.33;;;1.67;;